createdAt,value
2019-05-21T00:27:44.469Z,22.50
2019-05-21T00:28:44.435Z,22.60
2019-05-21T00:29:44.502Z,22.50
2019-05-21T00:30:44.571Z,21.70
2019-05-21T00:31:44.512Z,22.80
2019-05-21T00:32:44.474Z,22.60
2019-05-21T00:33:44.501Z,22.00
2019-05-21T00:34:44.634Z,22.30
2019-05-21T00:35:44.533Z,22.00
2019-05-21T00:36:44.557Z,22.30
2019-05-21T00:37:44.557Z,22.00
2019-05-21T00:38:44.510Z,22.50
2019-05-21T00:39:44.631Z,22.80
2019-05-21T00:40:44.618Z,22.50
2019-05-21T00:41:44.595Z,22.40
2019-05-21T00:42:44.654Z,22.20
2019-05-21T00:43:44.548Z,22.20
2019-05-21T00:44:44.620Z,20.90
2019-05-21T00:45:44.612Z,20.70
2019-05-21T00:46:44.611Z,20.90
2019-05-21T00:47:44.617Z,20.30
2019-05-21T00:48:44.621Z,20.60
2019-05-21T00:49:44.627Z,20.10
2019-05-21T00:50:44.620Z,20.70
2019-05-21T00:51:44.637Z,20.70
2019-05-21T00:52:44.668Z,20.50
2019-05-21T00:53:44.656Z,20.20
2019-05-21T00:54:44.655Z,20.20
2019-05-21T00:55:44.675Z,19.50
2019-05-21T00:56:44.729Z,20.00
2019-05-21T00:57:44.702Z,19.80
2019-05-21T00:58:44.703Z,20.40
2019-05-21T00:59:44.745Z,19.50
2019-05-21T01:00:44.694Z,19.90
2019-05-21T01:01:44.721Z,20.00
2019-05-21T01:02:44.718Z,20.40
2019-05-21T01:03:44.722Z,19.80
2019-05-21T01:04:59.625Z,19.30
2019-05-21T01:05:44.745Z,19.00
2019-05-21T01:06:44.805Z,18.70
2019-05-21T01:07:44.767Z,18.70
2019-05-21T01:08:44.766Z,19.40
2019-05-21T01:09:44.782Z,18.60
2019-05-21T01:10:44.789Z,19.60
2019-05-21T01:11:44.829Z,18.30
2019-05-21T01:12:44.833Z,18.60
2019-05-21T01:13:44.801Z,19.60
2019-05-21T01:14:44.822Z,18.00
2019-05-21T01:15:44.818Z,18.00
2019-05-21T01:16:44.838Z,17.90
2019-05-21T01:17:44.905Z,18.40
2019-05-21T01:18:44.855Z,18.20
2019-05-21T01:19:44.854Z,18.00
2019-05-21T01:20:44.862Z,18.60
2019-05-21T01:21:44.903Z,17.50
2019-05-21T01:22:44.883Z,18.60
2019-05-21T01:23:44.952Z,18.90
2019-05-21T01:24:44.966Z,18.30
2019-05-21T01:25:44.923Z,19.40
2019-05-21T01:26:44.913Z,18.00
2019-05-21T01:27:45.034Z,18.30
2019-05-21T01:28:44.963Z,18.00
2019-05-21T01:29:44.948Z,19.20
2019-05-21T01:30:45.002Z,18.50
2019-05-21T01:31:44.965Z,18.10
2019-05-21T01:32:44.993Z,18.20
2019-05-21T01:33:45.003Z,17.70
2019-05-21T01:34:44.988Z,18.10
2019-05-21T01:35:45.011Z,18.70
2019-05-21T01:36:45.015Z,18.10
2019-05-21T01:37:45.025Z,18.90
2019-05-21T01:38:45.054Z,18.20
2019-05-21T01:39:45.068Z,17.90
2019-05-21T01:40:45.048Z,18.80
2019-05-21T01:41:45.051Z,18.30
2019-05-21T01:42:45.064Z,18.10
2019-05-21T01:43:45.076Z,17.30
2019-05-21T01:44:45.083Z,19.20
2019-05-21T01:45:45.080Z,18.60
2019-05-21T01:46:45.088Z,18.40
2019-05-21T01:47:45.091Z,18.50
2019-05-21T01:48:45.123Z,18.40
2019-05-21T01:49:45.111Z,17.40
2019-05-21T01:50:45.154Z,18.60
2019-05-21T01:51:45.126Z,18.60
2019-05-21T01:52:45.153Z,17.30
2019-05-21T01:53:45.140Z,18.80
2019-05-21T01:54:45.146Z,18.90
2019-05-21T01:55:45.271Z,18.90
2019-05-21T01:56:45.176Z,17.80
2019-05-21T01:57:45.182Z,18.20
2019-05-21T01:58:45.210Z,18.70
2019-05-21T01:59:45.203Z,18.50
2019-05-21T02:00:45.229Z,18.60
2019-05-21T02:01:45.198Z,18.40
2019-05-21T02:02:45.226Z,18.90
2019-05-21T02:03:45.237Z,17.70
2019-05-21T02:04:45.281Z,18.40
2019-05-21T02:05:45.291Z,17.90
2019-05-21T02:06:45.292Z,17.70
2019-05-21T02:07:45.302Z,18.60
2019-05-21T02:08:45.306Z,18.30
2019-05-21T02:09:45.313Z,19.00
2019-05-21T02:10:45.304Z,18.80
2019-05-21T02:11:45.313Z,18.60
2019-05-21T02:12:45.335Z,18.40
2019-05-21T02:13:45.318Z,18.40
2019-05-21T02:14:45.323Z,18.30
2019-05-21T02:15:45.374Z,19.10
2019-05-21T02:16:45.339Z,17.80
2019-05-21T02:17:45.352Z,19.10
2019-05-21T02:18:45.355Z,17.40
2019-05-21T02:19:45.582Z,17.70
2019-05-21T02:20:45.435Z,18.20
2019-05-21T02:21:45.379Z,18.20
2019-05-21T02:22:45.396Z,18.40
2019-05-21T02:23:45.395Z,18.50
2019-05-21T02:24:45.406Z,18.80
2019-05-21T02:25:45.400Z,18.80
2019-05-21T02:26:45.455Z,19.40
2019-05-21T02:27:45.430Z,19.40
2019-05-21T02:28:45.439Z,18.60
2019-05-21T02:29:45.493Z,19.40
2019-05-21T02:30:45.506Z,19.50
2019-05-21T02:31:45.462Z,20.10
2019-05-21T02:32:45.471Z,19.50
2019-05-21T02:33:45.466Z,18.90
2019-05-21T02:34:45.479Z,19.50
2019-05-21T02:35:54.259Z,18.60
2019-05-21T02:36:45.517Z,18.80
2019-05-21T02:37:45.517Z,19.60
2019-05-21T02:38:45.521Z,19.30
2019-05-21T02:39:45.517Z,18.90
2019-05-21T02:40:45.579Z,18.20
2019-05-21T02:41:45.613Z,18.90
2019-05-21T02:42:45.600Z,18.00
2019-05-21T02:43:45.554Z,19.20
2019-05-21T02:44:45.608Z,19.10
2019-05-21T02:45:45.592Z,19.40
2019-05-21T02:46:45.646Z,18.70
2019-05-21T02:47:45.603Z,19.60
2019-05-21T02:48:45.610Z,20.20
2019-05-21T02:49:45.640Z,19.00
2019-05-21T02:50:45.630Z,20.00
2019-05-21T02:51:45.655Z,20.20
2019-05-21T02:52:45.674Z,19.60
2019-05-21T02:53:45.667Z,19.30
2019-05-21T02:54:45.702Z,20.20
2019-05-21T02:55:45.678Z,21.10
2019-05-21T02:56:45.670Z,19.80
2019-05-21T02:57:45.727Z,20.30
2019-05-21T02:58:45.741Z,20.90
2019-05-21T02:59:45.700Z,19.40
2019-05-21T03:00:45.705Z,20.40
2019-05-21T03:01:45.721Z,20.00
2019-05-21T03:02:45.730Z,20.60
2019-05-21T03:03:45.757Z,19.00
2019-05-21T03:04:45.738Z,19.60
2019-05-21T03:05:45.748Z,20.00
2019-05-21T03:06:45.758Z,19.00
2019-05-21T03:07:45.763Z,19.80
2019-05-21T03:08:45.807Z,19.60
2019-05-21T03:09:45.764Z,19.10
2019-05-21T03:10:45.772Z,19.60
2019-05-21T03:11:45.786Z,18.70
2019-05-21T03:12:45.800Z,18.80
2019-05-21T03:13:45.826Z,17.70
2019-05-21T03:14:45.825Z,18.70
2019-05-21T03:15:45.820Z,18.40
2019-05-21T03:16:45.831Z,17.00
2019-05-21T03:17:45.870Z,17.70
2019-05-21T03:18:45.859Z,17.20
2019-05-21T03:19:45.850Z,17.10
2019-05-21T03:20:45.866Z,18.30
2019-05-21T03:21:45.884Z,17.10
2019-05-21T03:22:45.909Z,16.60
2019-05-21T03:23:45.904Z,18.30
2019-05-21T03:24:45.882Z,17.10
2019-05-21T03:25:45.887Z,17.10
2019-05-21T03:26:45.975Z,17.80
2019-05-21T03:27:45.949Z,17.20
2019-05-21T03:28:45.921Z,17.90
2019-05-21T03:29:45.927Z,17.20
2019-05-21T03:30:45.967Z,17.90
2019-05-21T03:31:45.956Z,17.60
2019-05-21T03:32:45.961Z,16.40
2019-05-21T03:33:45.978Z,17.00
2019-05-21T03:34:46.065Z,16.70
2019-05-21T03:35:45.994Z,16.70
2019-05-21T03:36:46.012Z,17.70
2019-05-21T03:37:46.167Z,16.00
2019-05-21T03:38:46.061Z,15.80
2019-05-21T03:39:46.090Z,17.00
2019-05-21T03:40:46.034Z,16.10
2019-05-21T03:41:46.121Z,16.10
2019-05-21T03:42:46.051Z,16.50
2019-05-21T03:43:46.077Z,15.30
2019-05-21T03:44:59.255Z,15.10
2019-05-21T03:45:46.119Z,16.20
2019-05-21T03:46:46.099Z,15.60
2019-05-21T03:47:46.114Z,15.90
2019-05-21T03:48:46.088Z,15.30
2019-05-21T03:49:46.172Z,15.30
2019-05-21T03:50:46.126Z,16.20
2019-05-21T03:51:46.114Z,15.70
2019-05-21T03:52:47.423Z,16.10
2019-05-21T03:53:46.169Z,16.20
2019-05-21T03:54:46.181Z,15.60
2019-05-21T03:55:46.207Z,15.60
2019-05-21T03:56:46.177Z,15.60
2019-05-21T03:57:46.158Z,15.30
2019-05-21T03:58:46.173Z,15.70
2019-05-21T03:59:46.199Z,16.10
2019-05-21T04:00:46.219Z,15.50
2019-05-21T04:01:46.194Z,15.90
2019-05-21T04:02:46.216Z,15.40
2019-05-21T04:03:46.241Z,15.40
2019-05-21T04:04:46.235Z,16.10
2019-05-21T04:05:46.262Z,15.90
2019-05-21T04:06:52.122Z,16.60
2019-05-21T04:07:46.275Z,16.40
2019-05-21T04:08:46.285Z,16.10
2019-05-21T04:09:46.272Z,16.30
2019-05-21T04:10:46.315Z,16.90
2019-05-21T04:11:46.399Z,16.40
2019-05-21T04:12:46.291Z,15.90
2019-05-21T04:13:46.565Z,15.60
2019-05-21T04:14:46.315Z,15.40
2019-05-21T04:15:46.351Z,15.70
2019-05-21T04:16:46.357Z,15.20
2019-05-21T04:17:46.341Z,15.20
2019-05-21T04:18:46.368Z,15.90
2019-05-21T04:19:46.368Z,16.20
2019-05-21T04:20:46.367Z,15.60
2019-05-21T04:21:46.551Z,15.60
2019-05-21T04:22:46.389Z,14.90
2019-05-21T04:23:46.395Z,15.30
2019-05-21T04:24:46.415Z,15.20
2019-05-21T04:25:46.424Z,14.80
2019-05-21T04:26:46.460Z,14.40
2019-05-21T04:27:46.428Z,14.50
2019-05-21T04:28:46.497Z,14.10
2019-05-21T04:29:46.451Z,14.50
2019-05-21T04:30:46.500Z,13.70
2019-05-21T04:31:46.495Z,14.40
2019-05-21T04:32:46.534Z,13.20
2019-05-21T04:33:46.510Z,13.90
2019-05-21T04:34:46.514Z,14.00
2019-05-21T04:35:46.527Z,12.80
2019-05-21T04:36:46.540Z,13.20
2019-05-21T04:37:46.588Z,13.40
2019-05-21T04:38:46.561Z,13.30
2019-05-21T04:39:46.578Z,12.20
2019-05-21T04:40:46.656Z,13.60
2019-05-21T04:41:46.596Z,13.00
2019-05-21T04:42:46.643Z,12.60
2019-05-21T04:43:46.648Z,12.50
2019-05-21T04:44:46.603Z,13.20
2019-05-21T04:45:46.679Z,12.80
2019-05-21T04:46:46.652Z,11.80
2019-05-21T04:47:46.664Z,11.90
2019-05-21T04:48:46.702Z,12.50
2019-05-21T04:49:46.675Z,11.60
2019-05-21T04:50:46.696Z,11.80
2019-05-21T04:51:46.684Z,11.40
2019-05-21T04:52:46.726Z,11.20
2019-05-21T04:53:46.754Z,11.70
2019-05-21T04:54:46.725Z,11.50
2019-05-21T04:55:46.736Z,11.60
2019-05-21T04:56:46.755Z,11.30
2019-05-21T04:57:46.803Z,10.90
2019-05-21T04:58:46.800Z,11.30
2019-05-21T04:59:46.824Z,11.00
2019-05-21T05:00:46.801Z,10.40
2019-05-21T05:01:46.812Z,10.60
2019-05-21T05:02:46.818Z,11.50
2019-05-21T05:03:46.847Z,11.20
2019-05-21T05:04:46.890Z,11.10
2019-05-21T05:05:46.879Z,10.30
2019-05-21T05:06:46.886Z,10.20
2019-05-21T05:07:46.900Z,9.80
2019-05-21T05:08:46.926Z,9.80
2019-05-21T05:09:46.936Z,9.60
2019-05-21T05:10:49.303Z,9.90
2019-05-21T05:11:46.949Z,9.90
2019-05-21T05:12:47.005Z,9.20
2019-05-21T05:13:46.964Z,9.60
2019-05-21T05:14:47.017Z,9.60
2019-05-21T05:15:47.030Z,9.70
2019-05-21T05:16:47.041Z,9.60
2019-05-21T05:17:47.053Z,9.50
2019-05-21T05:18:47.051Z,9.60
2019-05-21T05:19:47.067Z,9.30
2019-05-21T05:20:47.093Z,8.90
2019-05-21T05:21:47.226Z,8.80
2019-05-21T05:22:47.129Z,8.60
2019-05-21T05:23:47.173Z,8.70
2019-05-21T05:24:47.154Z,8.80
2019-05-21T05:25:47.309Z,8.10
2019-05-21T05:26:47.196Z,9.20
2019-05-21T05:27:47.207Z,8.90
2019-05-21T05:28:47.267Z,8.50
2019-05-21T05:29:47.823Z,8.60
2019-05-21T05:30:48.121Z,8.80
2019-05-21T05:31:48.495Z,8.90
2019-05-21T05:32:47.522Z,8.60
2019-05-21T05:33:47.935Z,8.80
2019-05-21T05:34:47.377Z,8.60
2019-05-21T05:35:47.416Z,8.60
2019-05-21T05:36:47.833Z,8.50
2019-05-21T05:37:49.020Z,9.10
2019-05-21T05:38:47.360Z,8.90
2019-05-21T05:39:47.501Z,8.90
2019-05-21T05:40:47.475Z,8.60
2019-05-21T05:41:47.567Z,8.90
2019-05-21T05:42:47.573Z,8.60
2019-05-21T05:43:47.725Z,8.70
2019-05-21T05:44:47.536Z,9.10
2019-05-21T05:45:47.757Z,8.50
2019-05-21T05:46:47.525Z,8.60
2019-05-21T05:47:47.618Z,8.30
2019-05-21T05:48:47.884Z,8.40
2019-05-21T05:49:47.834Z,8.60
2019-05-21T05:50:47.627Z,8.40
2019-05-21T05:51:47.755Z,8.80
2019-05-21T05:52:48.248Z,8.60
2019-05-21T05:53:47.616Z,8.80
2019-05-21T05:54:47.643Z,8.30
2019-05-21T05:55:47.698Z,8.80
2019-05-21T05:56:47.672Z,8.40
2019-05-21T05:57:47.829Z,8.80
2019-05-21T05:58:47.691Z,8.60
2019-05-21T05:59:47.739Z,8.80
2019-05-21T06:00:47.744Z,8.40
2019-05-21T06:01:47.770Z,8.30
2019-05-21T06:02:47.761Z,8.90
2019-05-21T06:03:47.807Z,8.70
2019-05-21T06:04:47.837Z,8.50
2019-05-21T06:05:47.820Z,8.60
2019-05-21T06:06:47.846Z,8.20
2019-05-21T06:07:59.412Z,7.80
2019-05-21T06:08:47.877Z,7.80
2019-05-21T06:09:47.911Z,8.10
2019-05-21T06:10:47.913Z,8.20
2019-05-21T06:11:47.962Z,7.90
2019-05-21T06:12:47.967Z,7.90
2019-05-21T06:13:47.977Z,7.50
2019-05-21T06:14:48.013Z,7.60
2019-05-21T06:15:48.020Z,7.70
2019-05-21T06:16:48.037Z,7.70
2019-05-21T06:17:48.053Z,7.70
2019-05-21T06:18:48.068Z,7.80
2019-05-21T06:19:48.086Z,7.40
2019-05-21T06:20:48.129Z,7.50
2019-05-21T06:21:48.130Z,7.20
2019-05-21T06:22:48.151Z,7.20
2019-05-21T06:23:48.148Z,6.90
2019-05-21T06:24:48.162Z,7.10
2019-05-21T06:25:48.218Z,7.30
2019-05-21T06:26:48.219Z,6.70
2019-05-21T06:27:48.238Z,6.90
2019-05-21T06:28:49.172Z,6.90
2019-05-21T06:29:48.262Z,6.90
2019-05-21T06:30:48.285Z,6.40
2019-05-21T06:31:48.451Z,7.40
2019-05-21T06:32:48.324Z,7.30
2019-05-21T06:33:48.325Z,7.90
2019-05-21T06:34:48.879Z,6.80
2019-05-21T06:35:48.415Z,6.40
2019-05-21T06:36:48.449Z,6.20
2019-05-21T06:37:48.416Z,6.70
2019-05-21T06:38:48.418Z,6.30
2019-05-21T06:39:48.464Z,6.70
2019-05-21T06:40:48.784Z,6.80
2019-05-21T06:41:48.566Z,6.90
2019-05-21T06:42:48.509Z,7.00
2019-05-21T06:43:48.733Z,7.30
2019-05-21T06:44:48.533Z,6.70
2019-05-21T06:45:48.543Z,7.00
2019-05-21T06:46:48.599Z,7.00
2019-05-21T06:47:48.703Z,7.50
2019-05-21T06:48:48.615Z,7.20
2019-05-21T06:49:48.622Z,7.30
2019-05-21T06:50:48.650Z,7.30
2019-05-21T06:51:48.685Z,6.90
2019-05-21T06:52:48.813Z,7.20
2019-05-21T06:53:48.748Z,6.80
2019-05-21T06:54:48.877Z,8.00
2019-05-21T06:55:48.737Z,8.60
2019-05-21T06:56:48.755Z,7.60
2019-05-21T06:57:48.785Z,8.10
2019-05-21T06:58:48.855Z,8.60
2019-05-21T06:59:48.826Z,8.20
2019-05-21T07:00:48.882Z,7.30
2019-05-21T07:01:48.863Z,7.50
2019-05-21T07:02:48.921Z,7.00
2019-05-21T07:03:48.922Z,7.00
2019-05-21T07:04:48.962Z,6.00
2019-05-21T07:05:58.298Z,6.70
2019-05-21T07:06:49.106Z,6.40
2019-05-21T07:07:48.951Z,6.80
2019-05-21T07:08:48.997Z,6.40
2019-05-21T07:09:49.103Z,6.60
2019-05-21T07:10:49.005Z,6.90
2019-05-21T07:11:49.086Z,6.50
2019-05-21T07:12:49.054Z,6.80
2019-05-21T07:13:49.113Z,6.90
2019-05-21T07:14:49.186Z,6.60
2019-05-21T07:15:49.095Z,6.40
2019-05-21T07:16:49.686Z,6.70
2019-05-21T07:17:49.130Z,7.00
2019-05-21T07:18:49.230Z,7.10
2019-05-21T07:19:49.237Z,7.00
2019-05-21T07:20:49.186Z,6.70
2019-05-21T07:21:49.215Z,6.90
2019-05-21T07:22:49.263Z,7.10
2019-05-21T07:23:49.204Z,6.90
2019-05-21T07:24:49.270Z,7.30
2019-05-21T07:25:49.249Z,7.60
2019-05-21T07:26:49.281Z,7.40
2019-05-21T07:27:49.298Z,7.30
2019-05-21T07:28:49.335Z,7.40
2019-05-21T07:29:50.071Z,8.00
2019-05-21T07:30:49.316Z,8.10
2019-05-21T07:31:49.352Z,7.70
2019-05-21T07:32:49.483Z,7.10
2019-05-21T07:33:49.366Z,7.00
2019-05-21T07:34:49.397Z,6.60
2019-05-21T07:35:49.434Z,7.10
2019-05-21T07:36:49.408Z,7.60
2019-05-21T07:37:49.461Z,5.70
2019-05-21T07:38:53.845Z,5.90
2019-05-21T07:39:49.442Z,6.00
2019-05-21T07:40:49.463Z,5.80
2019-05-21T07:41:49.480Z,5.60
2019-05-21T07:42:49.476Z,5.40
2019-05-21T07:43:49.552Z,5.30
2019-05-21T07:44:49.495Z,4.90
2019-05-21T07:45:49.518Z,5.00
2019-05-21T07:46:49.527Z,5.90
2019-05-21T07:47:49.531Z,6.00
2019-05-21T07:48:49.586Z,6.60
2019-05-21T07:49:49.595Z,6.10
2019-05-21T07:50:49.602Z,6.40
2019-05-21T07:51:49.601Z,6.90
2019-05-21T07:52:49.604Z,7.00
2019-05-21T07:53:49.620Z,6.70
2019-05-21T07:54:49.667Z,6.20
2019-05-21T07:55:49.661Z,5.10
2019-05-21T07:56:49.657Z,5.50
2019-05-21T07:57:49.761Z,5.50
2019-05-21T07:58:49.681Z,5.60
2019-05-21T07:59:49.701Z,5.80
2019-05-21T08:00:49.715Z,13.00
2019-05-21T08:01:49.732Z,9.60
2019-05-21T08:02:49.740Z,6.80
2019-05-21T08:03:49.752Z,5.90
2019-05-21T08:04:49.742Z,5.70
2019-05-21T08:05:49.802Z,5.60
2019-05-21T08:06:49.782Z,6.20
2019-05-21T08:07:49.801Z,6.00
2019-05-21T08:08:49.811Z,5.70
2019-05-21T08:09:49.807Z,5.50
2019-05-21T08:10:49.858Z,5.40
2019-05-21T08:11:49.850Z,6.10
2019-05-21T08:12:49.856Z,6.40
2019-05-21T08:13:49.858Z,5.90
2019-05-21T08:14:49.864Z,6.20
2019-05-21T08:15:49.911Z,6.10
2019-05-21T08:16:49.932Z,7.40
2019-05-21T08:17:49.951Z,7.00
2019-05-21T08:18:49.915Z,9.50
2019-05-21T08:19:49.944Z,7.40
2019-05-21T08:20:49.936Z,6.20
2019-05-21T08:21:49.978Z,4.80
2019-05-21T08:22:49.971Z,4.90
2019-05-21T08:23:49.986Z,4.00
2019-05-21T08:24:49.992Z,3.80
2019-05-21T08:25:50.023Z,4.50
2019-05-21T08:26:50.039Z,5.20
2019-05-21T08:27:50.053Z,5.30
2019-05-21T08:28:50.033Z,5.10
2019-05-21T08:29:50.046Z,5.10
2019-05-21T08:30:50.083Z,4.50
2019-05-21T08:31:50.086Z,4.40
2019-05-21T08:32:50.099Z,4.50
2019-05-21T08:33:50.093Z,3.70
2019-05-21T08:34:50.157Z,3.90
2019-05-21T08:35:50.130Z,4.20
2019-05-21T08:36:50.216Z,4.60
2019-05-21T08:37:50.189Z,4.30
2019-05-21T08:38:50.217Z,4.50
2019-05-21T08:39:50.187Z,4.80
2019-05-21T08:40:50.202Z,5.10
2019-05-21T08:41:50.198Z,5.20
2019-05-21T08:42:50.219Z,4.60
2019-05-21T08:43:50.216Z,5.00
2019-05-21T08:44:50.225Z,4.00
2019-05-21T08:45:50.289Z,4.30
2019-05-21T08:46:50.261Z,4.10
2019-05-21T08:47:50.268Z,4.40
2019-05-21T08:48:50.269Z,4.80
2019-05-21T08:49:50.319Z,4.10
2019-05-21T08:50:50.322Z,4.40
2019-05-21T08:51:50.316Z,5.80
2019-05-21T08:52:50.342Z,5.00
2019-05-21T08:53:50.352Z,4.60
2019-05-21T08:54:50.377Z,5.20
2019-05-21T08:55:50.352Z,6.00
2019-05-21T08:56:50.380Z,4.50
2019-05-21T08:58:05.501Z,5.00
2019-05-21T08:58:50.525Z,5.20
2019-05-21T08:59:50.406Z,5.10
2019-05-21T09:00:50.462Z,4.00
2019-05-21T09:01:50.422Z,3.70
2019-05-21T09:02:50.446Z,3.60
2019-05-21T09:03:50.464Z,3.70
2019-05-21T09:04:50.482Z,4.50
2019-05-21T09:05:50.498Z,4.50
2019-05-21T09:06:50.491Z,4.30
2019-05-21T09:07:53.625Z,3.90
2019-05-21T09:08:50.525Z,3.70
2019-05-21T09:09:52.062Z,3.60
2019-05-21T09:10:50.535Z,3.80
2019-05-21T09:11:50.574Z,3.50
2019-05-21T09:12:50.568Z,3.90
2019-05-21T09:13:50.570Z,3.80
2019-05-21T09:14:50.610Z,4.30
2019-05-21T09:15:50.635Z,4.20
2019-05-21T09:16:50.605Z,6.70
2019-05-21T09:17:50.636Z,3.80
2019-05-21T09:18:50.630Z,4.10
2019-05-21T09:19:50.670Z,4.30
2019-05-21T09:20:50.687Z,7.20
2019-05-21T09:21:50.720Z,5.70
2019-05-21T09:22:50.706Z,5.40
2019-05-21T09:23:50.694Z,4.90
2019-05-21T09:24:50.733Z,4.30
2019-05-21T09:25:50.744Z,3.90
2019-05-21T09:26:50.791Z,3.50
2019-05-21T09:27:50.850Z,4.10
2019-05-21T09:28:50.755Z,4.30
2019-05-21T09:29:50.795Z,3.90
2019-05-21T09:30:50.847Z,4.10
2019-05-21T09:31:50.806Z,3.90
2019-05-21T09:32:50.829Z,3.90
2019-05-21T09:33:50.884Z,5.50
2019-05-21T09:34:50.833Z,6.60
2019-05-21T09:35:50.854Z,5.70
2019-05-21T09:36:50.877Z,5.90
2019-05-21T09:37:50.891Z,3.80
2019-05-21T09:38:50.913Z,3.30
2019-05-21T09:39:50.899Z,3.30
2019-05-21T09:40:50.912Z,3.40
2019-05-21T09:41:50.947Z,3.80
2019-05-21T09:42:50.957Z,4.80
2019-05-21T09:43:50.950Z,4.40
2019-05-21T09:44:50.987Z,4.90
2019-05-21T09:45:50.986Z,4.40
2019-05-21T09:46:50.979Z,3.70
2019-05-21T09:47:51.120Z,3.70
2019-05-21T09:48:51.020Z,4.10
2019-05-21T09:49:51.037Z,4.20
2019-05-21T09:50:51.079Z,4.80
2019-05-21T09:51:51.050Z,4.20
2019-05-21T09:52:51.270Z,3.50
2019-05-21T09:53:51.102Z,4.60
2019-05-21T09:54:51.108Z,4.30
2019-05-21T09:55:51.126Z,4.20
2019-05-21T09:56:51.163Z,4.20
2019-05-21T09:57:51.171Z,5.90
2019-05-21T09:58:51.182Z,5.20
2019-05-21T09:59:51.196Z,4.10
2019-05-21T10:00:51.203Z,5.10
2019-05-21T10:01:51.183Z,4.90
2019-05-21T10:02:51.225Z,4.40
2019-05-21T10:03:51.242Z,4.00
2019-05-21T10:04:51.350Z,4.00
2019-05-21T10:05:51.255Z,3.70
2019-05-21T10:06:51.266Z,4.90
2019-05-21T10:07:51.304Z,4.80
2019-05-21T10:08:51.338Z,4.90
2019-05-21T10:09:51.308Z,5.10
2019-05-21T10:10:51.376Z,3.80
2019-05-21T10:11:51.349Z,4.30
2019-05-21T10:12:51.372Z,3.20
2019-05-21T10:13:51.344Z,3.90
2019-05-21T10:14:51.422Z,4.20
2019-05-21T10:15:51.380Z,4.10
2019-05-21T10:16:51.410Z,4.10
2019-05-21T10:17:51.456Z,3.70
2019-05-21T10:18:51.432Z,3.60
2019-05-21T10:19:51.449Z,3.90
2019-05-21T10:20:51.474Z,3.50
2019-05-21T10:21:51.483Z,4.20
2019-05-21T10:22:51.488Z,3.70
2019-05-21T10:23:51.529Z,3.60
2019-05-21T10:24:51.496Z,3.50
2019-05-21T10:25:51.558Z,3.60
2019-05-21T10:26:51.529Z,3.40
2019-05-21T10:27:51.545Z,3.50
2019-05-21T10:28:51.579Z,3.40
2019-05-21T10:29:51.575Z,3.70
2019-05-21T10:30:51.612Z,4.10
2019-05-21T10:31:51.595Z,3.40
2019-05-21T10:32:51.622Z,3.20
2019-05-21T10:33:51.624Z,3.30
2019-05-21T10:34:51.711Z,3.40
2019-05-21T10:35:51.698Z,4.00
2019-05-21T10:36:51.721Z,4.10
2019-05-21T10:37:54.847Z,4.30
2019-05-21T10:38:51.709Z,3.80
2019-05-21T10:39:51.716Z,4.60
2019-05-21T10:40:51.758Z,3.70
2019-05-21T10:41:51.748Z,3.80
2019-05-21T10:42:51.755Z,4.00
2019-05-21T10:43:51.823Z,3.60
2019-05-21T10:44:51.784Z,3.70
2019-05-21T10:45:51.843Z,3.50
2019-05-21T10:46:51.831Z,3.70
2019-05-21T10:47:51.832Z,3.30
2019-05-21T10:48:51.841Z,3.60
2019-05-21T10:49:51.847Z,3.50
2019-05-21T10:50:51.872Z,3.50
2019-05-21T10:51:51.906Z,4.10
2019-05-21T10:52:51.888Z,4.90
2019-05-21T10:53:51.904Z,5.30
2019-05-21T10:54:51.916Z,4.90
2019-05-21T10:55:51.982Z,5.20
2019-05-21T10:56:51.977Z,5.80
2019-05-21T10:57:51.956Z,5.20
2019-05-21T10:58:51.991Z,4.30
2019-05-21T10:59:52.023Z,6.30
2019-05-21T11:00:52.026Z,3.70
2019-05-21T11:01:52.071Z,4.00
2019-05-21T11:02:52.065Z,4.20
2019-05-21T11:03:52.047Z,3.60
2019-05-21T11:04:52.074Z,3.60
2019-05-21T11:06:07.400Z,2.90
2019-05-21T11:06:52.116Z,3.70
2019-05-21T11:07:52.119Z,3.80
2019-05-21T11:08:52.140Z,3.70
2019-05-21T11:09:52.159Z,3.70
2019-05-21T11:10:52.159Z,4.20
2019-05-21T11:11:52.173Z,3.90
2019-05-21T11:12:52.176Z,4.90
2019-05-21T11:13:52.232Z,4.40
2019-05-21T11:14:52.206Z,3.40
2019-05-21T11:15:52.256Z,3.50
2019-05-21T11:16:52.253Z,3.00
2019-05-21T11:18:09.081Z,3.30
2019-05-21T11:18:52.313Z,3.70
2019-05-21T11:19:52.294Z,3.70
2019-05-21T11:20:52.368Z,4.30
2019-05-21T11:21:52.345Z,3.60
2019-05-21T11:22:52.340Z,3.50
2019-05-21T11:23:52.393Z,3.60
2019-05-21T11:24:52.387Z,3.40
2019-05-21T11:25:52.386Z,3.70
2019-05-21T11:26:52.392Z,4.10
2019-05-21T11:27:52.423Z,4.40
2019-05-21T11:28:52.484Z,4.20
2019-05-21T11:29:52.441Z,3.80
2019-05-21T11:30:52.534Z,3.50
2019-05-21T11:31:57.280Z,3.60
2019-05-21T11:32:52.508Z,4.20
2019-05-21T11:33:52.534Z,4.40
2019-05-21T11:34:52.524Z,4.20
2019-05-21T11:35:52.594Z,4.30
2019-05-21T11:36:52.559Z,4.50
2019-05-21T11:37:52.569Z,5.00
2019-05-21T11:38:52.574Z,4.40
2019-05-21T11:39:52.631Z,3.90
2019-05-21T11:40:52.628Z,4.30
2019-05-21T11:41:52.629Z,4.00
2019-05-21T11:42:53.269Z,4.70
2019-05-21T11:43:52.671Z,3.80
2019-05-21T11:44:52.710Z,3.40
2019-05-21T11:45:52.696Z,3.30
2019-05-21T11:46:52.734Z,3.30
2019-05-21T11:47:54.661Z,3.80
2019-05-21T11:48:52.736Z,3.40
2019-05-21T11:49:52.737Z,3.00
2019-05-21T11:50:52.813Z,2.80
2019-05-21T11:51:52.841Z,3.00
2019-05-21T11:52:52.801Z,3.00
2019-05-21T11:53:52.815Z,2.80
2019-05-21T11:54:55.777Z,3.50
2019-05-21T11:55:52.873Z,3.40
2019-05-21T11:56:52.856Z,2.90
2019-05-21T11:57:52.940Z,3.20
2019-05-21T11:58:52.874Z,3.20
2019-05-21T11:59:52.930Z,3.20
2019-05-21T12:00:52.910Z,3.40
2019-05-21T12:01:52.958Z,3.60
2019-05-21T12:02:53.032Z,3.90
2019-05-21T12:03:52.951Z,4.10
2019-05-21T12:04:53.027Z,5.10
2019-05-21T12:05:52.998Z,4.70
2019-05-21T12:06:53.035Z,4.40
2019-05-21T12:07:53.015Z,4.10
2019-05-21T12:08:56.618Z,4.50
2019-05-21T12:09:53.165Z,4.60
2019-05-21T12:10:53.107Z,4.70
2019-05-21T12:11:53.080Z,4.40
2019-05-21T12:12:53.142Z,4.10
2019-05-21T12:13:53.108Z,4.00
2019-05-21T12:14:53.125Z,4.50
2019-05-21T12:15:53.168Z,4.50
2019-05-21T12:16:53.162Z,3.90
2019-05-21T12:17:53.200Z,4.40
2019-05-21T12:18:53.178Z,4.30
2019-05-21T12:19:53.182Z,3.80
2019-05-21T12:20:53.232Z,3.80
2019-05-21T12:21:53.335Z,7.10
2019-05-21T12:22:53.231Z,8.30
2019-05-21T12:23:53.309Z,5.70
2019-05-21T12:24:53.286Z,5.70
2019-05-21T12:25:53.279Z,6.50
2019-05-21T12:26:53.297Z,3.90
2019-05-21T12:27:53.308Z,4.00
2019-05-21T12:28:53.340Z,3.30
2019-05-21T12:29:53.377Z,3.90
2019-05-21T12:30:53.360Z,3.30
2019-05-21T12:31:53.378Z,3.40
2019-05-21T12:32:53.408Z,3.60
2019-05-21T12:33:53.430Z,3.90
2019-05-21T12:34:53.414Z,3.80
2019-05-21T12:35:53.435Z,3.50
2019-05-21T12:36:53.439Z,4.10
2019-05-21T12:37:53.447Z,4.20
2019-05-21T12:38:53.495Z,4.00
2019-05-21T12:39:53.533Z,3.80
2019-05-21T12:40:53.504Z,3.50
2019-05-21T12:41:53.523Z,3.80
2019-05-21T12:42:53.536Z,3.40
2019-05-21T12:43:53.562Z,3.60
2019-05-21T12:44:53.555Z,3.40
2019-05-21T12:45:53.575Z,3.70
2019-05-21T12:46:53.589Z,3.80
2019-05-21T12:47:54.170Z,3.80
2019-05-21T12:48:53.637Z,3.90
2019-05-21T12:49:53.633Z,3.70
2019-05-21T12:50:53.667Z,3.50
2019-05-21T12:51:53.699Z,3.80
2019-05-21T12:52:53.678Z,4.30
2019-05-21T12:53:53.689Z,3.80
2019-05-21T12:54:53.702Z,4.10
2019-05-21T12:55:53.707Z,3.50
2019-05-21T12:56:53.739Z,3.60
2019-05-21T12:57:53.763Z,3.30
2019-05-21T12:58:53.766Z,3.80
2019-05-21T12:59:53.787Z,3.30
2019-05-21T13:00:53.779Z,3.10
2019-05-21T13:01:53.856Z,3.30
2019-05-21T13:02:53.816Z,3.30
2019-05-21T13:03:55.508Z,3.60
2019-05-21T13:04:53.846Z,3.50
2019-05-21T13:05:53.873Z,3.30
2019-05-21T13:06:53.915Z,3.50
2019-05-21T13:07:53.882Z,3.70
2019-05-21T13:08:53.952Z,3.30
2019-05-21T13:09:53.919Z,3.40
2019-05-21T13:10:53.960Z,3.50
2019-05-21T13:11:53.966Z,3.60
2019-05-21T13:12:53.955Z,3.30
2019-05-21T13:13:53.983Z,3.30
2019-05-21T13:14:53.989Z,3.20
2019-05-21T13:15:54.030Z,3.10
2019-05-21T13:16:54.026Z,3.60
2019-05-21T13:17:54.064Z,5.00
2019-05-21T13:18:54.058Z,3.80
2019-05-21T13:19:54.100Z,4.10
2019-05-21T13:20:54.069Z,4.30
2019-05-21T13:21:54.094Z,4.70
2019-05-21T13:22:54.136Z,3.90
2019-05-21T13:23:54.116Z,2.80
2019-05-21T13:24:54.160Z,3.20
2019-05-21T13:25:54.152Z,3.60
2019-05-21T13:26:54.176Z,6.20
2019-05-21T13:27:57.446Z,5.00
2019-05-21T13:28:54.255Z,3.90
2019-05-21T13:29:54.207Z,4.10
2019-05-21T13:30:54.228Z,5.30
2019-05-21T13:31:54.263Z,3.60
2019-05-21T13:32:54.302Z,4.40
2019-05-21T13:33:54.258Z,3.70
2019-05-21T13:34:54.291Z,3.20
2019-05-21T13:35:54.295Z,3.10
2019-05-21T13:36:54.305Z,3.10